sensor_id;sensor_type;location;lat;lon;timestamp;pressure;altitude;pressure_sealevel;temperature;humidity
63700;BME280;49845;47.130;142.766;2022-11-30T00:01:08;99548.84;;;-5.12;74.89
63700;BME280;49845;47.130;142.766;2022-11-30T00:03:39;99541.16;;;-5.14;74.09
63700;BME280;49845;47.130;142.766;2022-11-30T00:06:11;99539.81;;;-5.28;74.16
63700;BME280;49845;47.130;142.766;2022-11-30T00:08:44;99522.75;;;-5.31;74.30
63700;BME280;49845;47.130;142.766;2022-11-30T00:11:16;99542.56;;;-4.98;74.02
63700;BME280;49845;47.130;142.766;2022-11-30T00:13:48;99532.69;;;-4.89;73.90
63700;BME280;49845;47.130;142.766;2022-11-30T00:16:19;99523.28;;;-4.90;73.60
63700;BME280;49845;47.130;142.766;2022-11-30T00:18:50;99530.16;;;-4.87;73.08
63700;BME280;49845;47.130;142.766;2022-11-30T00:21:21;99538.72;;;-4.85;71.58
63700;BME280;49845;47.130;142.766;2022-11-30T00:23:53;99506.88;;;-4.98;70.34
63700;BME280;49845;47.130;142.766;2022-11-30T00:26:24;99548.47;;;-4.73;68.68
63700;BME280;49845;47.130;142.766;2022-11-30T00:28:55;99541.84;;;-4.68;67.34
63700;BME280;49845;47.130;142.766;2022-11-30T00:31:25;99530.13;;;-4.63;66.17
63700;BME280;49845;47.130;142.766;2022-11-30T00:33:56;99513.84;;;-4.67;65.16
63700;BME280;49845;47.130;142.766;2022-11-30T00:36:27;99547.13;;;-4.37;65.14
63700;BME280;49845;47.130;142.766;2022-11-30T00:38:59;99523.50;;;-4.31;64.50
63700;BME280;49845;47.130;142.766;2022-11-30T00:41:30;99539.28;;;-4.43;64.91
63700;BME280;49845;47.130;142.766;2022-11-30T00:44:00;99525.03;;;-4.63;64.96
63700;BME280;49845;47.130;142.766;2022-11-30T00:46:31;99542.97;;;-4.86;64.58
63700;BME280;49845;47.130;142.766;2022-11-30T00:49:02;99544.28;;;-4.97;65.10
63700;BME280;49845;47.130;142.766;2022-11-30T00:51:32;99517.59;;;-4.83;65.71
63700;BME280;49845;47.130;142.766;2022-11-30T00:54:05;99526.66;;;-4.65;65.64
63700;BME280;49845;47.130;142.766;2022-11-30T00:56:36;99527.91;;;-4.52;65.71
63700;BME280;49845;47.130;142.766;2022-11-30T00:59:06;99514.91;;;-4.60;65.41
63700;BME280;49845;47.130;142.766;2022-11-30T01:01:37;99531.72;;;-4.40;65.74
63700;BME280;49845;47.130;142.766;2022-11-30T01:04:08;99509.75;;;-4.36;66.23
63700;BME280;49845;47.130;142.766;2022-11-30T01:06:38;99507.41;;;-4.28;66.59
63700;BME280;49845;47.130;142.766;2022-11-30T01:09:11;99521.47;;;-4.14;66.27
63700;BME280;49845;47.130;142.766;2022-11-30T01:11:41;99517.31;;;-4.10;65.95
63700;BME280;49845;47.130;142.766;2022-11-30T01:14:12;99510.97;;;-4.23;65.21
63700;BME280;49845;47.130;142.766;2022-11-30T01:16:43;99520.78;;;-4.36;64.49
63700;BME280;49845;47.130;142.766;2022-11-30T01:19:18;99529.75;;;-4.21;64.85
63700;BME280;49845;47.130;142.766;2022-11-30T01:21:49;99517.31;;;-4.38;64.21
63700;BME280;49845;47.130;142.766;2022-11-30T01:24:21;99517.41;;;-4.35;64.00
63700;BME280;49845;47.130;142.766;2022-11-30T01:26:52;99515.88;;;-4.29;63.93
63700;BME280;49845;47.130;142.766;2022-11-30T01:29:22;99518.09;;;-4.13;64.08
63700;BME280;49845;47.130;142.766;2022-11-30T01:31:53;99509.72;;;-4.09;63.87
63700;BME280;49845;47.130;142.766;2022-11-30T01:34:46;99520.94;;;-4.04;63.41
63700;BME280;49845;47.130;142.766;2022-11-30T01:37:17;99518.47;;;-4.01;63.60
63700;BME280;49845;47.130;142.766;2022-11-30T01:39:49;99506.34;;;-4.08;63.30
63700;BME280;49845;47.130;142.766;2022-11-30T01:42:20;99506.16;;;-4.14;62.55
63700;BME280;49845;47.130;142.766;2022-11-30T01:44:53;99499.31;;;-4.15;62.57
63700;BME280;49845;47.130;142.766;2022-11-30T01:47:27;99495.75;;;-4.20;62.48
63700;BME280;49845;47.130;142.766;2022-11-30T01:50:03;99505.34;;;-4.13;62.61
63700;BME280;49845;47.130;142.766;2022-11-30T01:52:39;99471.78;;;-4.25;62.45
63700;BME280;49845;47.130;142.766;2022-11-30T01:55:20;99511.72;;;-3.99;62.73
63700;BME280;49845;47.130;142.766;2022-11-30T01:58:03;99493.88;;;-3.97;62.63
63700;BME280;49845;47.130;142.766;2022-11-30T02:00:34;99490.19;;;-3.78;63.14
63700;BME280;49845;47.130;142.766;2022-11-30T02:03:09;99480.97;;;-3.73;62.82
63700;BME280;49845;47.130;142.766;2022-11-30T02:05:41;99489.69;;;-3.66;62.38
63700;BME280;49845;47.130;142.766;2022-11-30T02:08:12;99481.53;;;-3.53;62.07
63700;BME280;49845;47.130;142.766;2022-11-30T02:10:58;99484.38;;;-3.42;61.25
63700;BME280;49845;47.130;142.766;2022-11-30T02:13:48;99454.38;;;-3.50;61.20
63700;BME280;49845;47.130;142.766;2022-11-30T02:16:28;99478.94;;;-3.23;61.02
63700;BME280;49845;47.130;142.766;2022-11-30T02:19:07;99476.09;;;-3.34;59.74
63700;BME280;49845;47.130;142.766;2022-11-30T02:21:45;99484.53;;;-3.36;60.02
63700;BME280;49845;47.130;142.766;2022-11-30T02:24:38;99475.97;;;-3.38;59.34
63700;BME280;49845;47.130;142.766;2022-11-30T02:27:26;99480.75;;;-3.51;59.66
63700;BME280;49845;47.130;142.766;2022-11-30T02:30:03;99420.19;;;-3.86;59.88
63700;BME280;49845;47.130;142.766;2022-11-30T02:32:40;99474.06;;;-3.45;60.05
63700;BME280;49845;47.130;142.766;2022-11-30T02:35:15;99472.56;;;-3.39;59.77
63700;BME280;49845;47.130;142.766;2022-11-30T02:37:48;99475.59;;;-3.20;59.43
63700;BME280;49845;47.130;142.766;2022-11-30T02:40:21;99462.88;;;-3.19;60.07
63700;BME280;49845;47.130;142.766;2022-11-30T02:42:52;99466.16;;;-3.23;59.47
63700;BME280;49845;47.130;142.766;2022-11-30T02:45:30;99470.00;;;-3.39;59.34
63700;BME280;49845;47.130;142.766;2022-11-30T02:48:07;99456.44;;;-3.68;59.59
63700;BME280;49845;47.130;142.766;2022-11-30T02:50:44;99470.28;;;-3.60;60.16
63700;BME280;49845;47.130;142.766;2022-11-30T02:53:17;99463.38;;;-3.64;59.91
63700;BME280;49845;47.130;142.766;2022-11-30T02:55:48;99455.22;;;-3.81;59.77
63700;BME280;49845;47.130;142.766;2022-11-30T02:58:19;99459.25;;;-3.89;59.97
63700;BME280;49845;47.130;142.766;2022-11-30T03:00:51;99450.72;;;-3.90;59.81
63700;BME280;49845;47.130;142.766;2022-11-30T03:03:22;99461.53;;;-3.68;59.36
63700;BME280;49845;47.130;142.766;2022-11-30T03:05:53;99452.88;;;-3.73;58.95
63700;BME280;49845;47.130;142.766;2022-11-30T03:08:23;99458.25;;;-3.64;58.71
63700;BME280;49845;47.130;142.766;2022-11-30T03:10:54;99448.53;;;-3.45;58.28
63700;BME280;49845;47.130;142.766;2022-11-30T03:13:25;99446.81;;;-3.47;56.73
63700;BME280;49845;47.130;142.766;2022-11-30T03:15:57;99450.69;;;-3.29;56.69
63700;BME280;49845;47.130;142.766;2022-11-30T03:18:28;99445.19;;;-3.10;55.54
63700;BME280;49845;47.130;142.766;2022-11-30T03:20:59;99455.72;;;-2.97;55.34
63700;BME280;49845;47.130;142.766;2022-11-30T03:23:29;99451.09;;;-2.77;54.47
63700;BME280;49845;47.130;142.766;2022-11-30T03:26:00;99445.47;;;-2.63;54.59
63700;BME280;49845;47.130;142.766;2022-11-30T03:28:31;99446.56;;;-2.53;54.96
63700;BME280;49845;47.130;142.766;2022-11-30T03:31:04;99450.75;;;-2.56;54.36
63700;BME280;49845;47.130;142.766;2022-11-30T03:33:35;99450.69;;;-2.59;54.99
63700;BME280;49845;47.130;142.766;2022-11-30T03:36:07;99447.97;;;-2.66;55.32
63700;BME280;49845;47.130;142.766;2022-11-30T03:38:38;99439.09;;;-2.82;55.34
63700;BME280;49845;47.130;142.766;2022-11-30T03:41:11;99435.09;;;-3.38;55.18
63700;BME280;49845;47.130;142.766;2022-11-30T03:43:43;99430.31;;;-3.26;56.53
63700;BME280;49845;47.130;142.766;2022-11-30T03:46:16;99425.19;;;-3.26;56.43
63700;BME280;49845;47.130;142.766;2022-11-30T03:48:47;99420.09;;;-3.26;55.33
63700;BME280;49845;47.130;142.766;2022-11-30T03:51:17;99426.53;;;-3.40;54.56
63700;BME280;49845;47.130;142.766;2022-11-30T03:53:48;99421.53;;;-3.69;53.47
63700;BME280;49845;47.130;142.766;2022-11-30T03:56:19;99432.47;;;-3.73;53.35
63700;BME280;49845;47.130;142.766;2022-11-30T03:58:50;99435.66;;;-3.80;54.08
63700;BME280;49845;47.130;142.766;2022-11-30T04:01:40;99433.38;;;-3.71;55.26
63700;BME280;49845;47.130;142.766;2022-11-30T04:04:11;99430.31;;;-3.90;55.33
63700;BME280;49845;47.130;142.766;2022-11-30T04:06:41;99442.97;;;-4.23;54.87
63700;BME280;49845;47.130;142.766;2022-11-30T04:09:12;99439.66;;;-4.47;55.38
63700;BME280;49845;47.130;142.766;2022-11-30T04:11:43;99443.53;;;-4.60;55.74
63700;BME280;49845;47.130;142.766;2022-11-30T04:14:17;99410.69;;;-4.78;56.05
63700;BME280;49845;47.130;142.766;2022-11-30T04:16:54;99442.06;;;-4.52;56.18
63700;BME280;49845;47.130;142.766;2022-11-30T04:19:26;99459.03;;;-4.54;56.78
63700;BME280;49845;47.130;142.766;2022-11-30T04:21:56;99443.44;;;-4.63;57.33
63700;BME280;49845;47.130;142.766;2022-11-30T04:24:27;99447.00;;;-4.58;57.62
63700;BME280;49845;47.130;142.766;2022-11-30T04:26:58;99444.78;;;-4.47;57.99
63700;BME280;49845;47.130;142.766;2022-11-30T04:29:29;99449.31;;;-4.39;57.95
63700;BME280;49845;47.130;142.766;2022-11-30T04:32:01;99444.75;;;-4.49;57.23
63700;BME280;49845;47.130;142.766;2022-11-30T04:34:32;99453.63;;;-4.63;57.44
63700;BME280;49845;47.130;142.766;2022-11-30T04:37:02;99451.53;;;-4.77;58.05
63700;BME280;49845;47.130;142.766;2022-11-30T04:39:34;99457.97;;;-4.88;58.18
63700;BME280;49845;47.130;142.766;2022-11-30T04:42:05;99459.19;;;-5.02;59.66
63700;BME280;49845;47.130;142.766;2022-11-30T04:44:35;99452.97;;;-5.36;61.17
63700;BME280;49845;47.130;142.766;2022-11-30T04:47:08;99461.06;;;-5.22;62.31
63700;BME280;49845;47.130;142.766;2022-11-30T04:49:39;99469.59;;;-5.22;62.31
63700;BME280;49845;47.130;142.766;2022-11-30T04:52:09;99456.81;;;-5.47;61.50
63700;BME280;49845;47.130;142.766;2022-11-30T04:54:40;99465.69;;;-5.61;61.16
63700;BME280;49845;47.130;142.766;2022-11-30T04:57:12;99463.72;;;-5.69;61.04
63700;BME280;49845;47.130;142.766;2022-11-30T04:59:43;99487.75;;;-5.60;61.26
63700;BME280;49845;47.130;142.766;2022-11-30T05:02:15;99474.44;;;-5.53;60.97
63700;BME280;49845;47.130;142.766;2022-11-30T05:04:46;99465.44;;;-5.68;60.29
63700;BME280;49845;47.130;142.766;2022-11-30T05:07:17;99469.78;;;-5.65;61.04
63700;BME280;49845;47.130;142.766;2022-11-30T05:09:47;99466.47;;;-5.63;61.27
63700;BME280;49845;47.130;142.766;2022-11-30T05:12:18;99473.34;;;-5.60;60.79
63700;BME280;49845;47.130;142.766;2022-11-30T05:14:50;99487.97;;;-5.54;60.38
63700;BME280;49845;47.130;142.766;2022-11-30T05:17:22;99496.75;;;-5.46;60.30
63700;BME280;49845;47.130;142.766;2022-11-30T05:19:53;99486.06;;;-5.36;60.23
63700;BME280;49845;47.130;142.766;2022-11-30T05:22:24;99480.59;;;-5.47;59.08
63700;BME280;49845;47.130;142.766;2022-11-30T05:24:54;99505.84;;;-5.29;59.68
63700;BME280;49845;47.130;142.766;2022-11-30T05:27:25;99512.22;;;-5.40;59.44
63700;BME280;49845;47.130;142.766;2022-11-30T05:29:56;99515.16;;;-5.53;60.31
63700;BME280;49845;47.130;142.766;2022-11-30T05:32:29;99512.66;;;-5.76;60.31
63700;BME280;49845;47.130;142.766;2022-11-30T05:34:59;99522.47;;;-5.85;60.65
63700;BME280;49845;47.130;142.766;2022-11-30T05:37:30;99523.66;;;-5.99;61.03
63700;BME280;49845;47.130;142.766;2022-11-30T05:40:01;99522.34;;;-6.12;60.64
63700;BME280;49845;47.130;142.766;2022-11-30T05:42:31;99526.56;;;-6.13;60.57
63700;BME280;49845;47.130;142.766;2022-11-30T05:45:02;99545.88;;;-5.95;61.11
63700;BME280;49845;47.130;142.766;2022-11-30T05:47:35;99542.72;;;-5.88;60.52
63700;BME280;49845;47.130;142.766;2022-11-30T05:50:07;99549.00;;;-6.02;60.39
63700;BME280;49845;47.130;142.766;2022-11-30T05:52:38;99555.94;;;-6.21;59.97
63700;BME280;49845;47.130;142.766;2022-11-30T05:55:30;99562.47;;;-6.48;59.85
63700;BME280;49845;47.130;142.766;2022-11-30T05:58:00;99555.28;;;-6.59;60.22
63700;BME280;49845;47.130;142.766;2022-11-30T06:00:31;99556.78;;;-6.64;60.25
63700;BME280;49845;47.130;142.766;2022-11-30T06:03:04;99524.56;;;-6.84;60.34
63700;BME280;49845;47.130;142.766;2022-11-30T06:05:35;99548.06;;;-6.69;60.00
63700;BME280;49845;47.130;142.766;2022-11-30T06:08:08;99558.97;;;-6.72;60.31
63700;BME280;49845;47.130;142.766;2022-11-30T06:10:41;99558.81;;;-6.76;60.23
63700;BME280;49845;47.130;142.766;2022-11-30T06:13:13;99560.94;;;-6.85;60.13
63700;BME280;49845;47.130;142.766;2022-11-30T06:15:44;99563.69;;;-6.81;60.62
63700;BME280;49845;47.130;142.766;2022-11-30T06:18:16;99554.75;;;-6.92;60.23
63700;BME280;49845;47.130;142.766;2022-11-30T06:20:47;99564.28;;;-6.86;60.41
63700;BME280;49845;47.130;142.766;2022-11-30T06:23:18;99561.81;;;-6.85;60.62
63700;BME280;49845;47.130;142.766;2022-11-30T06:25:51;99564.56;;;-6.80;61.12
63700;BME280;49845;47.130;142.766;2022-11-30T06:28:24;99568.50;;;-6.87;60.88
63700;BME280;49845;47.130;142.766;2022-11-30T06:30:58;99560.31;;;-7.01;61.50
63700;BME280;49845;47.130;142.766;2022-11-30T06:33:30;99567.00;;;-7.03;62.05
63700;BME280;49845;47.130;142.766;2022-11-30T06:36:01;99559.31;;;-7.04;62.46
63700;BME280;49845;47.130;142.766;2022-11-30T06:38:32;99562.84;;;-7.01;62.26
63700;BME280;49845;47.130;142.766;2022-11-30T06:41:04;99563.53;;;-7.05;62.97
63700;BME280;49845;47.130;142.766;2022-11-30T06:43:36;99564.59;;;-7.19;63.57
63700;BME280;49845;47.130;142.766;2022-11-30T06:46:08;99559.25;;;-7.25;63.87
63700;BME280;49845;47.130;142.766;2022-11-30T06:48:40;99562.34;;;-7.32;64.69
63700;BME280;49845;47.130;142.766;2022-11-30T06:51:11;99545.50;;;-7.50;64.85
63700;BME280;49845;47.130;142.766;2022-11-30T06:53:45;99563.69;;;-7.41;65.70
63700;BME280;49845;47.130;142.766;2022-11-30T06:56:27;99564.59;;;-7.58;66.17
63700;BME280;49845;47.130;142.766;2022-11-30T06:58:58;99569.06;;;-7.52;66.85
63700;BME280;49845;47.130;142.766;2022-11-30T07:01:29;99575.13;;;-7.49;67.51
63700;BME280;49845;47.130;142.766;2022-11-30T07:04:02;99568.09;;;-7.56;68.18
63700;BME280;49845;47.130;142.766;2022-11-30T07:06:33;99580.09;;;-7.52;68.96
63700;BME280;49845;47.130;142.766;2022-11-30T07:09:09;99560.25;;;-7.61;69.83
63700;BME280;49845;47.130;142.766;2022-11-30T07:11:40;99580.47;;;-7.62;69.85
63700;BME280;49845;47.130;142.766;2022-11-30T07:14:12;99556.84;;;-7.81;70.46
63700;BME280;49845;47.130;142.766;2022-11-30T07:16:43;99571.38;;;-7.76;70.90
63700;BME280;49845;47.130;142.766;2022-11-30T07:19:19;99581.00;;;-7.69;71.55
63700;BME280;49845;47.130;142.766;2022-11-30T07:21:57;99578.41;;;-7.71;71.54
63700;BME280;49845;47.130;142.766;2022-11-30T07:24:28;99559.38;;;-7.81;72.46
63700;BME280;49845;47.130;142.766;2022-11-30T07:27:16;99579.84;;;-7.58;72.37
63700;BME280;49845;47.130;142.766;2022-11-30T07:29:50;99574.03;;;-7.55;72.42
63700;BME280;49845;47.130;142.766;2022-11-30T07:32:24;99582.91;;;-7.46;73.11
63700;BME280;49845;47.130;142.766;2022-11-30T07:34:56;99577.31;;;-7.39;72.63
63700;BME280;49845;47.130;142.766;2022-11-30T07:37:27;99580.38;;;-7.46;72.21
63700;BME280;49845;47.130;142.766;2022-11-30T07:40:57;99587.19;;;-7.45;72.77
63700;BME280;49845;47.130;142.766;2022-11-30T07:43:10;99584.25;;;-7.34;73.21
63700;BME280;49845;47.130;142.766;2022-11-30T07:45:51;99586.00;;;-7.33;73.19
63700;BME280;49845;47.130;142.766;2022-11-30T07:48:35;99583.84;;;-7.24;73.31
63700;BME280;49845;47.130;142.766;2022-11-30T07:51:11;99580.91;;;-7.33;73.29
63700;BME280;49845;47.130;142.766;2022-11-30T07:53:42;99574.91;;;-7.16;74.01
63700;BME280;49845;47.130;142.766;2022-11-30T07:56:15;99583.59;;;-7.11;73.57
63700;BME280;49845;47.130;142.766;2022-11-30T07:58:54;99554.53;;;-7.37;73.06
63700;BME280;49845;47.130;142.766;2022-11-30T08:01:38;99593.00;;;-7.28;72.94
63700;BME280;49845;47.130;142.766;2022-11-30T08:04:09;99586.13;;;-7.30;73.06
63700;BME280;49845;47.130;142.766;2022-11-30T08:06:52;99572.75;;;-7.26;73.46
63700;BME280;49845;47.130;142.766;2022-11-30T08:09:36;99585.19;;;-7.32;73.21
63700;BME280;49845;47.130;142.766;2022-11-30T08:12:10;99598.00;;;-7.29;73.61
63700;BME280;49845;47.130;142.766;2022-11-30T08:14:45;99596.53;;;-7.24;73.62
63700;BME280;49845;47.130;142.766;2022-11-30T08:17:36;99597.47;;;-7.42;73.02
63700;BME280;49845;47.130;142.766;2022-11-30T08:20:10;99592.00;;;-7.51;72.92
63700;BME280;49845;47.130;142.766;2022-11-30T08:22:51;99597.63;;;-7.39;73.21
63700;BME280;49845;47.130;142.766;2022-11-30T08:25:24;99602.81;;;-7.35;72.88
63700;BME280;49845;47.130;142.766;2022-11-30T08:27:56;99601.06;;;-7.37;72.83
63700;BME280;49845;47.130;142.766;2022-11-30T08:30:35;99601.47;;;-7.27;73.07
63700;BME280;49845;47.130;142.766;2022-11-30T08:33:07;99595.22;;;-7.16;72.97
63700;BME280;49845;47.130;142.766;2022-11-30T08:35:37;99602.53;;;-7.22;72.36
63700;BME280;49845;47.130;142.766;2022-11-30T08:38:11;99608.63;;;-7.38;71.40
63700;BME280;49845;47.130;142.766;2022-11-30T08:40:43;99598.78;;;-7.50;70.74
63700;BME280;49845;47.130;142.766;2022-11-30T08:43:14;99599.31;;;-7.57;70.95
63700;BME280;49845;47.130;142.766;2022-11-30T08:45:50;99596.91;;;-7.54;71.13
63700;BME280;49845;47.130;142.766;2022-11-30T08:48:42;99612.00;;;-7.57;70.87
63700;BME280;49845;47.130;142.766;2022-11-30T08:51:17;99613.47;;;-7.62;70.91
63700;BME280;49845;47.130;142.766;2022-11-30T08:53:53;99613.75;;;-7.56;71.47
63700;BME280;49845;47.130;142.766;2022-11-30T08:56:25;99627.94;;;-7.60;71.04
63700;BME280;49845;47.130;142.766;2022-11-30T08:58:57;99625.38;;;-7.61;71.47
63700;BME280;49845;47.130;142.766;2022-11-30T09:01:30;99609.13;;;-7.65;71.76
63700;BME280;49845;47.130;142.766;2022-11-30T09:04:12;99607.00;;;-7.55;72.11
63700;BME280;49845;47.130;142.766;2022-11-30T09:06:46;99608.69;;;-7.56;72.34
63700;BME280;49845;47.130;142.766;2022-11-30T09:09:19;99595.78;;;-7.61;71.56
63700;BME280;49845;47.130;142.766;2022-11-30T09:11:51;99621.72;;;-7.66;70.77
63700;BME280;49845;47.130;142.766;2022-11-30T09:14:21;99617.38;;;-7.69;70.52
63700;BME280;49845;47.130;142.766;2022-11-30T09:16:53;99586.84;;;-7.90;70.48
63700;BME280;49845;47.130;142.766;2022-11-30T09:19:29;99626.91;;;-7.45;71.42
63700;BME280;49845;47.130;142.766;2022-11-30T09:22:02;99636.75;;;-7.33;71.08
63700;BME280;49845;47.130;142.766;2022-11-30T09:24:44;99632.66;;;-7.30;70.75
63700;BME280;49845;47.130;142.766;2022-11-30T09:27:15;99633.28;;;-7.35;70.82
63700;BME280;49845;47.130;142.766;2022-11-30T09:29:47;99640.22;;;-7.31;70.61
63700;BME280;49845;47.130;142.766;2022-11-30T09:32:24;99642.22;;;-7.24;71.19
63700;BME280;49845;47.130;142.766;2022-11-30T09:35:04;99630.34;;;-7.25;70.69
63700;BME280;49845;47.130;142.766;2022-11-30T09:37:39;99645.56;;;-7.25;70.48
63700;BME280;49845;47.130;142.766;2022-11-30T09:40:25;99627.66;;;-7.48;70.19
63700;BME280;49845;47.130;142.766;2022-11-30T09:43:16;99640.81;;;-7.37;70.48
63700;BME280;49845;47.130;142.766;2022-11-30T09:45:58;99643.31;;;-7.39;70.70
63700;BME280;49845;47.130;142.766;2022-11-30T09:48:58;99651.00;;;-7.55;69.88
63700;BME280;49845;47.130;142.766;2022-11-30T09:51:44;99645.38;;;-7.67;70.27
63700;BME280;49845;47.130;142.766;2022-11-30T09:54:20;99650.53;;;-7.46;71.29
63700;BME280;49845;47.130;142.766;2022-11-30T09:56:53;99649.97;;;-7.41;71.07
63700;BME280;49845;47.130;142.766;2022-11-30T09:59:25;99632.72;;;-7.48;70.97
63700;BME280;49845;47.130;142.766;2022-11-30T10:01:58;99610.28;;;-7.58;70.94
63700;BME280;49845;47.130;142.766;2022-11-30T10:04:30;99664.41;;;-7.20;71.55
63700;BME280;49845;47.130;142.766;2022-11-30T10:07:29;99653.44;;;-7.39;71.28
63700;BME280;49845;47.130;142.766;2022-11-30T10:10:19;99659.69;;;-7.50;70.94
63700;BME280;49845;47.130;142.766;2022-11-30T10:13:15;99671.16;;;-7.58;71.60
63700;BME280;49845;47.130;142.766;2022-11-30T10:16:05;99659.13;;;-7.62;71.94
63700;BME280;49845;47.130;142.766;2022-11-30T10:18:50;99671.03;;;-7.61;72.31
63700;BME280;49845;47.130;142.766;2022-11-30T10:22:16;99659.84;;;-7.65;73.10
63700;BME280;49845;47.130;142.766;2022-11-30T10:25:28;99671.59;;;-7.67;73.81
63700;BME280;49845;47.130;142.766;2022-11-30T10:28:56;99675.81;;;-7.67;74.31
63700;BME280;49845;47.130;142.766;2022-11-30T10:32:12;99658.94;;;-7.85;75.00
63700;BME280;49845;47.130;142.766;2022-11-30T10:34:51;99673.41;;;-7.64;75.77
63700;BME280;49845;47.130;142.766;2022-11-30T10:37:31;99684.22;;;-7.68;75.70
63700;BME280;49845;47.130;142.766;2022-11-30T10:40:08;99655.06;;;-7.76;75.91
63700;BME280;49845;47.130;142.766;2022-11-30T10:42:51;99686.09;;;-7.64;75.96
63700;BME280;49845;47.130;142.766;2022-11-30T10:45:28;99684.22;;;-7.68;76.20
63700;BME280;49845;47.130;142.766;2022-11-30T10:48:06;99698.00;;;-7.63;76.18
63700;BME280;49845;47.130;142.766;2022-11-30T10:50:44;99704.34;;;-7.71;76.51
63700;BME280;49845;47.130;142.766;2022-11-30T10:53:23;99698.56;;;-7.87;77.18
63700;BME280;49845;47.130;142.766;2022-11-30T10:56:00;99697.28;;;-7.78;77.77
63700;BME280;49845;47.130;142.766;2022-11-30T10:58:36;99645.97;;;-7.91;78.06
63700;BME280;49845;47.130;142.766;2022-11-30T11:01:28;99698.00;;;-7.63;77.94
63700;BME280;49845;47.130;142.766;2022-11-30T11:04:14;99698.00;;;-7.63;78.29
63700;BME280;49845;47.130;142.766;2022-11-30T11:06:51;99692.63;;;-7.87;77.37
63700;BME280;49845;47.130;142.766;2022-11-30T11:09:36;99680.06;;;-8.02;77.58
63700;BME280;49845;47.130;142.766;2022-11-30T11:12:15;99709.97;;;-7.78;77.78
63700;BME280;49845;47.130;142.766;2022-11-30T11:14:47;99720.75;;;-7.83;77.09
63700;BME280;49845;47.130;142.766;2022-11-30T11:17:23;99723.91;;;-7.87;77.57
63700;BME280;49845;47.130;142.766;2022-11-30T11:19:54;99727.25;;;-7.88;77.54
63700;BME280;49845;47.130;142.766;2022-11-30T11:22:25;99727.53;;;-7.82;78.00
63700;BME280;49845;47.130;142.766;2022-11-30T11:25:15;99736.25;;;-7.76;78.29
63700;BME280;49845;47.130;142.766;2022-11-30T11:27:52;99724.94;;;-7.65;78.21
63700;BME280;49845;47.130;142.766;2022-11-30T11:30:29;99719.56;;;-7.71;77.79
63700;BME280;49845;47.130;142.766;2022-11-30T11:33:26;99738.41;;;-7.66;77.75
63700;BME280;49845;47.130;142.766;2022-11-30T11:36:13;99730.31;;;-7.59;78.21
63700;BME280;49845;47.130;142.766;2022-11-30T11:38:45;99725.22;;;-7.59;77.82
63700;BME280;49845;47.130;142.766;2022-11-30T11:41:22;99725.09;;;-7.62;77.92
63700;BME280;49845;47.130;142.766;2022-11-30T11:44:01;99721.19;;;-7.73;77.78
63700;BME280;49845;47.130;142.766;2022-11-30T11:46:36;99722.47;;;-7.82;78.04
63700;BME280;49845;47.130;142.766;2022-11-30T11:49:19;99726.75;;;-7.63;77.54
63700;BME280;49845;47.130;142.766;2022-11-30T11:51:59;99729.00;;;-7.51;78.05
63700;BME280;49845;47.130;142.766;2022-11-30T11:54:37;99720.47;;;-7.53;77.63
63700;BME280;49845;47.130;142.766;2022-11-30T11:57:11;99720.47;;;-7.71;76.85
63700;BME280;49845;47.130;142.766;2022-11-30T11:59:49;99738.72;;;-7.60;76.56
63700;BME280;49845;47.130;142.766;2022-11-30T12:02:52;99729.72;;;-7.71;75.99
63700;BME280;49845;47.130;142.766;2022-11-30T12:05:46;99732.19;;;-7.91;75.26
63700;BME280;49845;47.130;142.766;2022-11-30T12:08:35;99754.66;;;-7.81;75.39
63700;BME280;49845;47.130;142.766;2022-11-30T12:11:13;99758.16;;;-7.78;75.71
63700;BME280;49845;47.130;142.766;2022-11-30T12:14:10;99756.69;;;-7.73;75.35
63700;BME280;49845;47.130;142.766;2022-11-30T12:19:55;99743.44;;;-7.86;75.80
63700;BME280;49845;47.130;142.766;2022-11-30T12:22:47;99766.13;;;-7.71;76.06
63700;BME280;49845;47.130;142.766;2022-11-30T12:25:22;99761.19;;;-7.68;75.84
63700;BME280;49845;47.130;142.766;2022-11-30T12:28:04;99768.28;;;-7.78;75.62
63700;BME280;49845;47.130;142.766;2022-11-30T12:30:50;99764.50;;;-7.87;76.05
63700;BME280;49845;47.130;142.766;2022-11-30T12:33:37;99753.78;;;-7.81;76.39
63700;BME280;49845;47.130;142.766;2022-11-30T12:36:21;99742.00;;;-7.97;75.90
63700;BME280;49845;47.130;142.766;2022-11-30T12:38:58;99757.25;;;-7.79;75.96
63700;BME280;49845;47.130;142.766;2022-11-30T12:41:40;99762.63;;;-7.73;75.90
63700;BME280;49845;47.130;142.766;2022-11-30T12:44:32;99770.47;;;-7.68;75.37
63700;BME280;49845;47.130;142.766;2022-11-30T12:47:12;99764.38;;;-7.72;75.13
63700;BME280;49845;47.130;142.766;2022-11-30T12:49:56;99762.78;;;-7.70;74.90
63700;BME280;49845;47.130;142.766;2022-11-30T12:52:39;99761.78;;;-7.73;74.38
63700;BME280;49845;47.130;142.766;2022-11-30T12:55:23;99743.81;;;-8.12;71.86
63700;BME280;49845;47.130;142.766;2022-11-30T12:58:00;99765.03;;;-8.10;71.90
63700;BME280;49845;47.130;142.766;2022-11-30T13:00:41;99766.66;;;-7.94;73.25
63700;BME280;49845;47.130;142.766;2022-11-30T13:03:30;99775.19;;;-8.10;73.16
63700;BME280;49845;47.130;142.766;2022-11-30T13:06:13;99768.66;;;-8.05;73.63
63700;BME280;49845;47.130;142.766;2022-11-30T13:08:51;99760.25;;;-8.04;73.70
63700;BME280;49845;47.130;142.766;2022-11-30T13:11:29;99744.63;;;-8.13;73.36
63700;BME280;49845;47.130;142.766;2022-11-30T13:14:05;99767.50;;;-7.94;73.31
63700;BME280;49845;47.130;142.766;2022-11-30T13:16:39;99743.59;;;-7.99;73.41
63700;BME280;49845;47.130;142.766;2022-11-30T13:19:24;99749.97;;;-8.07;72.68
63700;BME280;49845;47.130;142.766;2022-11-30T13:22:01;99756.94;;;-8.03;72.43
63700;BME280;49845;47.130;142.766;2022-11-30T13:24:40;99742.56;;;-8.20;72.37
63700;BME280;49845;47.130;142.766;2022-11-30T13:27:33;99723.09;;;-8.38;72.33
63700;BME280;49845;47.130;142.766;2022-11-30T13:30:19;99758.78;;;-8.17;72.11